sensor_id;sensor_type;location;lat;lon;timestamp;P1;durP1;ratioP1;P2;durP2;ratioP2
56593;SDS011;42474;51.660;5.824;2023-04-15T00:00:56;5.4;;;4.5;;
56593;SDS011;42474;51.660;5.824;2023-04-15T00:05:56;8.2;;;5.1;;
56593;SDS011;42474;51.660;5.824;2023-04-15T00:10:56;7.4;;;5.0;;
56593;SDS011;42474;51.660;5.824;2023-04-15T00:15:56;7.7;;;5.4;;
56593;SDS011;42474;51.660;5.824;2023-04-15T00:20:56;7.1;;;5.1;;
56593;SDS011;42474;51.660;5.824;2023-04-15T00:25:56;8.4;;;5.1;;
56593;SDS011;42474;51.660;5.824;2023-04-15T00:30:56;10.7;;;5.5;;
56593;SDS011;42474;51.660;5.824;2023-04-15T00:35:56;7.1;;;5.1;;
56593;SDS011;42474;51.660;5.824;2023-04-15T00:40:56;7.7;;;5.5;;
56593;SDS011;42474;51.660;5.824;2023-04-15T00:45:56;8.6;;;6.1;;
56593;SDS011;42474;51.660;5.824;2023-04-15T00:50:56;8.6;;;5.8;;
56593;SDS011;42474;51.660;5.824;2023-04-15T00:55:56;7.7;;;5.9;;
56593;SDS011;42474;51.660;5.824;2023-04-15T01:00:56;8.1;;;5.9;;
56593;SDS011;42474;51.660;5.824;2023-04-15T01:05:56;7.6;;;5.9;;
56593;SDS011;42474;51.660;5.824;2023-04-15T01:10:56;7.8;;;6.0;;
56593;SDS011;42474;51.660;5.824;2023-04-15T01:15:56;8.1;;;5.8;;
56593;SDS011;42474;51.660;5.824;2023-04-15T01:20:56;11.5;;;5.6;;
56593;SDS011;42474;51.660;5.824;2023-04-15T01:25:56;9.2;;;6.4;;
56593;SDS011;42474;51.660;5.824;2023-04-15T01:31:04;8.9;;;6.0;;
56593;SDS011;42474;51.660;5.824;2023-04-15T01:35:56;10.5;;;6.1;;
56593;SDS011;42474;51.660;5.824;2023-04-15T01:40:56;8.6;;;5.6;;
56593;SDS011;42474;51.660;5.824;2023-04-15T01:45:56;7.5;;;5.5;;
56593;SDS011;42474;51.660;5.824;2023-04-15T01:55:56;8.4;;;6.2;;
56593;SDS011;42474;51.660;5.824;2023-04-15T02:00:56;8.3;;;5.8;;
56593;SDS011;42474;51.660;5.824;2023-04-15T02:05:56;12.8;;;6.6;;
56593;SDS011;42474;51.660;5.824;2023-04-15T02:10:56;8.8;;;5.8;;
56593;SDS011;42474;51.660;5.824;2023-04-15T02:15:56;8.9;;;6.3;;
56593;SDS011;42474;51.660;5.824;2023-04-15T02:20:56;7.6;;;5.8;;
56593;SDS011;42474;51.660;5.824;2023-04-15T02:25:56;8.1;;;6.1;;
56593;SDS011;42474;51.660;5.824;2023-04-15T02:30:56;7.8;;;6.2;;
56593;SDS011;42474;51.660;5.824;2023-04-15T02:35:56;9.7;;;6.5;;
56593;SDS011;42474;51.660;5.824;2023-04-15T02:40:56;8.5;;;6.5;;
56593;SDS011;42474;51.660;5.824;2023-04-15T02:45:56;9.3;;;7.1;;
56593;SDS011;42474;51.660;5.824;2023-04-15T02:50:56;10.2;;;6.6;;
56593;SDS011;42474;51.660;5.824;2023-04-15T02:55:56;10.6;;;7.0;;
56593;SDS011;42474;51.660;5.824;2023-04-15T03:00:56;8.9;;;6.3;;
56593;SDS011;42474;51.660;5.824;2023-04-15T03:05:56;10.8;;;6.6;;
56593;SDS011;42474;51.660;5.824;2023-04-15T03:10:56;9.4;;;7.2;;
56593;SDS011;42474;51.660;5.824;2023-04-15T03:15:56;10.4;;;7.0;;
56593;SDS011;42474;51.660;5.824;2023-04-15T03:20:56;9.0;;;6.7;;
56593;SDS011;42474;51.660;5.824;2023-04-15T03:25:56;9.7;;;7.1;;
56593;SDS011;42474;51.660;5.824;2023-04-15T03:30:56;10.8;;;7.0;;
56593;SDS011;42474;51.660;5.824;2023-04-15T03:35:56;9.1;;;6.7;;
56593;SDS011;42474;51.660;5.824;2023-04-15T03:40:56;9.9;;;7.1;;
56593;SDS011;42474;51.660;5.824;2023-04-15T03:45:56;10.8;;;6.6;;
56593;SDS011;42474;51.660;5.824;2023-04-15T03:50:56;10.0;;;7.3;;
56593;SDS011;42474;51.660;5.824;2023-04-15T03:55:56;10.6;;;7.4;;
56593;SDS011;42474;51.660;5.824;2023-04-15T04:00:56;11.1;;;7.6;;
56593;SDS011;42474;51.660;5.824;2023-04-15T04:05:56;10.8;;;7.7;;
56593;SDS011;42474;51.660;5.824;2023-04-15T04:10:56;10.2;;;7.5;;
56593;SDS011;42474;51.660;5.824;2023-04-15T04:15:56;11.3;;;8.0;;
56593;SDS011;42474;51.660;5.824;2023-04-15T04:20:56;10.6;;;7.9;;
56593;SDS011;42474;51.660;5.824;2023-04-15T04:25:56;10.4;;;7.4;;
56593;SDS011;42474;51.660;5.824;2023-04-15T04:30:56;10.0;;;7.3;;
56593;SDS011;42474;51.660;5.824;2023-04-15T04:35:56;11.1;;;7.6;;
56593;SDS011;42474;51.660;5.824;2023-04-15T04:40:56;11.1;;;7.3;;
56593;SDS011;42474;51.660;5.824;2023-04-15T04:45:56;11.9;;;7.1;;
56593;SDS011;42474;51.660;5.824;2023-04-15T04:50:56;10.3;;;7.3;;
56593;SDS011;42474;51.660;5.824;2023-04-15T04:55:56;10.8;;;7.2;;
56593;SDS011;42474;51.660;5.824;2023-04-15T05:00:56;9.4;;;7.2;;
56593;SDS011;42474;51.660;5.824;2023-04-15T05:05:56;9.7;;;6.9;;
56593;SDS011;42474;51.660;5.824;2023-04-15T05:10:56;13.6;;;7.8;;
56593;SDS011;42474;51.660;5.824;2023-04-15T05:15:56;10.0;;;7.3;;
56593;SDS011;42474;51.660;5.824;2023-04-15T05:20:56;9.3;;;7.0;;
56593;SDS011;42474;51.660;5.824;2023-04-15T05:25:56;10.1;;;7.4;;
56593;SDS011;42474;51.660;5.824;2023-04-15T05:30:56;9.1;;;7.3;;
56593;SDS011;42474;51.660;5.824;2023-04-15T05:35:56;9.7;;;7.5;;
56593;SDS011;42474;51.660;5.824;2023-04-15T05:40:56;10.2;;;7.2;;
56593;SDS011;42474;51.660;5.824;2023-04-15T05:45:56;10.8;;;7.9;;
56593;SDS011;42474;51.660;5.824;2023-04-15T05:50:56;10.5;;;7.3;;
56593;SDS011;42474;51.660;5.824;2023-04-15T05:55:56;11.4;;;7.7;;
56593;SDS011;42474;51.660;5.824;2023-04-15T06:00:56;9.4;;;7.3;;
56593;SDS011;42474;51.660;5.824;2023-04-15T06:05:56;10.2;;;7.8;;
56593;SDS011;42474;51.660;5.824;2023-04-15T06:10:56;10.2;;;7.6;;
56593;SDS011;42474;51.660;5.824;2023-04-15T06:15:56;11.5;;;7.7;;
56593;SDS011;42474;51.660;5.824;2023-04-15T06:20:56;11.3;;;8.2;;
56593;SDS011;42474;51.660;5.824;2023-04-15T06:25:56;11.7;;;7.8;;
56593;SDS011;42474;51.660;5.824;2023-04-15T06:30:56;11.9;;;8.9;;
56593;SDS011;42474;51.660;5.824;2023-04-15T06:35:56;11.0;;;7.6;;
56593;SDS011;42474;51.660;5.824;2023-04-15T06:40:56;10.0;;;7.7;;
56593;SDS011;42474;51.660;5.824;2023-04-15T06:45:56;11.5;;;8.6;;
56593;SDS011;42474;51.660;5.824;2023-04-15T06:50:56;13.2;;;8.6;;
56593;SDS011;42474;51.660;5.824;2023-04-15T06:55:56;11.4;;;8.4;;
56593;SDS011;42474;51.660;5.824;2023-04-15T07:05:56;11.8;;;8.4;;
56593;SDS011;42474;51.660;5.824;2023-04-15T07:10:56;10.9;;;8.1;;
56593;SDS011;42474;51.660;5.824;2023-04-15T07:15:56;10.3;;;7.8;;
56593;SDS011;42474;51.660;5.824;2023-04-15T07:20:56;10.5;;;7.8;;
56593;SDS011;42474;51.660;5.824;2023-04-15T07:25:56;11.6;;;8.1;;
56593;SDS011;42474;51.660;5.824;2023-04-15T07:30:56;11.4;;;8.4;;
56593;SDS011;42474;51.660;5.824;2023-04-15T07:35:56;12.4;;;8.5;;
56593;SDS011;42474;51.660;5.824;2023-04-15T07:40:56;10.5;;;8.2;;
56593;SDS011;42474;51.660;5.824;2023-04-15T07:45:56;11.3;;;7.8;;
56593;SDS011;42474;51.660;5.824;2023-04-15T07:50:56;10.7;;;7.0;;
56593;SDS011;42474;51.660;5.824;2023-04-15T07:55:56;12.3;;;7.8;;
56593;SDS011;42474;51.660;5.824;2023-04-15T08:00:56;9.9;;;7.9;;
56593;SDS011;42474;51.660;5.824;2023-04-15T08:05:56;11.1;;;7.9;;
56593;SDS011;42474;51.660;5.824;2023-04-15T08:10:56;10.8;;;7.7;;
56593;SDS011;42474;51.660;5.824;2023-04-15T08:16:12;11.5;;;7.9;;
56593;SDS011;42474;51.660;5.824;2023-04-15T08:20:56;9.0;;;6.3;;
56593;SDS011;42474;51.660;5.824;2023-04-15T08:25:56;8.7;;;5.9;;
56593;SDS011;42474;51.660;5.824;2023-04-15T08:30:56;8.1;;;6.4;;
56593;SDS011;42474;51.660;5.824;2023-04-15T08:35:56;9.3;;;6.3;;
56593;SDS011;42474;51.660;5.824;2023-04-15T08:40:57;8.4;;;6.1;;
56593;SDS011;42474;51.660;5.824;2023-04-15T08:45:56;8.3;;;6.0;;
56593;SDS011;42474;51.660;5.824;2023-04-15T08:50:56;8.1;;;5.2;;
56593;SDS011;42474;51.660;5.824;2023-04-15T08:55:56;6.7;;;4.8;;
56593;SDS011;42474;51.660;5.824;2023-04-15T09:00:56;5.7;;;4.5;;
56593;SDS011;42474;51.660;5.824;2023-04-15T09:05:56;6.1;;;4.8;;
56593;SDS011;42474;51.660;5.824;2023-04-15T09:10:56;6.1;;;3.9;;
56593;SDS011;42474;51.660;5.824;2023-04-15T09:15:56;5.7;;;4.1;;
56593;SDS011;42474;51.660;5.824;2023-04-15T09:21:02;5.8;;;4.3;;
56593;SDS011;42474;51.660;5.824;2023-04-15T09:25:56;5.4;;;4.0;;
56593;SDS011;42474;51.660;5.824;2023-04-15T09:30:56;5.3;;;4.0;;
56593;SDS011;42474;51.660;5.824;2023-04-15T09:35:56;6.1;;;4.1;;
56593;SDS011;42474;51.660;5.824;2023-04-15T09:40:56;4.1;;;3.0;;
56593;SDS011;42474;51.660;5.824;2023-04-15T09:45:56;4.1;;;2.9;;
56593;SDS011;42474;51.660;5.824;2023-04-15T09:50:58;3.9;;;2.9;;
56593;SDS011;42474;51.660;5.824;2023-04-15T09:55:57;6.2;;;3.0;;
56593;SDS011;42474;51.660;5.824;2023-04-15T10:00:56;4.0;;;2.4;;
56593;SDS011;42474;51.660;5.824;2023-04-15T10:05:57;3.9;;;2.8;;
56593;SDS011;42474;51.660;5.824;2023-04-15T10:10:56;3.5;;;2.7;;
56593;SDS011;42474;51.660;5.824;2023-04-15T10:15:57;3.6;;;2.5;;
56593;SDS011;42474;51.660;5.824;2023-04-15T10:20:56;3.8;;;2.4;;
56593;SDS011;42474;51.660;5.824;2023-04-15T10:25:56;3.4;;;2.6;;
56593;SDS011;42474;51.660;5.824;2023-04-15T10:30:56;3.4;;;2.6;;
56593;SDS011;42474;51.660;5.824;2023-04-15T10:35:56;4.2;;;2.8;;
56593;SDS011;42474;51.660;5.824;2023-04-15T10:40:59;4.6;;;2.9;;
56593;SDS011;42474;51.660;5.824;2023-04-15T10:45:56;3.7;;;2.6;;
56593;SDS011;42474;51.660;5.824;2023-04-15T10:50:59;6.0;;;2.5;;
56593;SDS011;42474;51.660;5.824;2023-04-15T10:55:56;3.6;;;2.9;;
56593;SDS011;42474;51.660;5.824;2023-04-15T11:00:56;3.3;;;2.4;;
56593;SDS011;42474;51.660;5.824;2023-04-15T11:05:56;4.2;;;2.9;;
56593;SDS011;42474;51.660;5.824;2023-04-15T11:10:56;3.5;;;2.5;;
56593;SDS011;42474;51.660;5.824;2023-04-15T11:15:56;4.0;;;2.5;;
56593;SDS011;42474;51.660;5.824;2023-04-15T11:20:57;3.4;;;2.7;;
56593;SDS011;42474;51.660;5.824;2023-04-15T11:25:56;3.0;;;2.2;;
56593;SDS011;42474;51.660;5.824;2023-04-15T11:30:56;3.2;;;2.4;;
56593;SDS011;42474;51.660;5.824;2023-04-15T11:35:56;3.2;;;2.3;;
56593;SDS011;42474;51.660;5.824;2023-04-15T11:40:56;3.5;;;2.3;;
56593;SDS011;42474;51.660;5.824;2023-04-15T11:45:57;3.1;;;2.5;;
56593;SDS011;42474;51.660;5.824;2023-04-15T11:50:57;4.0;;;2.5;;
56593;SDS011;42474;51.660;5.824;2023-04-15T11:55:56;3.4;;;2.6;;
56593;SDS011;42474;51.660;5.824;2023-04-15T12:00:56;3.3;;;2.4;;
56593;SDS011;42474;51.660;5.824;2023-04-15T12:06:22;3.1;;;2.2;;
56593;SDS011;42474;51.660;5.824;2023-04-15T12:10:57;2.9;;;2.1;;
56593;SDS011;42474;51.660;5.824;2023-04-15T12:15:56;2.5;;;2.0;;
56593;SDS011;42474;51.660;5.824;2023-04-15T12:20:56;2.5;;;1.8;;
56593;SDS011;42474;51.660;5.824;2023-04-15T12:25:56;2.5;;;1.8;;
56593;SDS011;42474;51.660;5.824;2023-04-15T12:30:56;3.0;;;1.7;;
56593;SDS011;42474;51.660;5.824;2023-04-15T12:35:56;3.0;;;1.8;;
56593;SDS011;42474;51.660;5.824;2023-04-15T12:40:57;2.2;;;1.4;;
56593;SDS011;42474;51.660;5.824;2023-04-15T12:45:56;2.2;;;1.6;;
56593;SDS011;42474;51.660;5.824;2023-04-15T12:50:56;5.5;;;1.5;;
56593;SDS011;42474;51.660;5.824;2023-04-15T12:55:56;3.3;;;1.4;;
56593;SDS011;42474;51.660;5.824;2023-04-15T13:00:56;2.2;;;1.1;;
56593;SDS011;42474;51.660;5.824;2023-04-15T13:05:56;2.0;;;1.3;;
56593;SDS011;42474;51.660;5.824;2023-04-15T13:10:56;2.1;;;1.3;;
56593;SDS011;42474;51.660;5.824;2023-04-15T13:15:56;2.3;;;1.4;;
56593;SDS011;42474;51.660;5.824;2023-04-15T13:20:56;1.9;;;1.1;;
56593;SDS011;42474;51.660;5.824;2023-04-15T13:25:56;2.1;;;1.4;;
56593;SDS011;42474;51.660;5.824;2023-04-15T13:30:56;2.6;;;1.4;;
56593;SDS011;42474;51.660;5.824;2023-04-15T13:35:56;1.5;;;1.2;;
56593;SDS011;42474;51.660;5.824;2023-04-15T13:40:57;3.1;;;1.8;;
56593;SDS011;42474;51.660;5.824;2023-04-15T13:45:56;2.5;;;1.7;;
56593;SDS011;42474;51.660;5.824;2023-04-15T13:50:56;2.0;;;1.5;;
56593;SDS011;42474;51.660;5.824;2023-04-15T13:55:56;3.0;;;1.6;;
56593;SDS011;42474;51.660;5.824;2023-04-15T14:00:56;3.5;;;1.4;;
56593;SDS011;42474;51.660;5.824;2023-04-15T14:05:56;1.3;;;1.1;;
56593;SDS011;42474;51.660;5.824;2023-04-15T14:10:56;1.5;;;1.1;;
56593;SDS011;42474;51.660;5.824;2023-04-15T14:15:56;2.3;;;1.0;;
56593;SDS011;42474;51.660;5.824;2023-04-15T14:20:56;2.2;;;1.0;;
56593;SDS011;42474;51.660;5.824;2023-04-15T14:25:56;1.8;;;0.9;;
56593;SDS011;42474;51.660;5.824;2023-04-15T14:30:56;3.9;;;1.0;;
56593;SDS011;42474;51.660;5.824;2023-04-15T14:35:56;2.4;;;1.1;;
56593;SDS011;42474;51.660;5.824;2023-04-15T14:40:56;4.3;;;0.9;;
56593;SDS011;42474;51.660;5.824;2023-04-15T14:45:56;1.0;;;0.8;;
56593;SDS011;42474;51.660;5.824;2023-04-15T14:50:56;1.6;;;0.9;;
56593;SDS011;42474;51.660;5.824;2023-04-15T14:55:56;1.2;;;0.8;;
56593;SDS011;42474;51.660;5.824;2023-04-15T15:00:56;0.9;;;0.7;;
56593;SDS011;42474;51.660;5.824;2023-04-15T15:05:56;2.0;;;0.9;;
56593;SDS011;42474;51.660;5.824;2023-04-15T15:10:56;3.2;;;1.0;;
56593;SDS011;42474;51.660;5.824;2023-04-15T15:15:56;1.5;;;0.9;;
56593;SDS011;42474;51.660;5.824;2023-04-15T15:20:56;1.5;;;0.8;;
56593;SDS011;42474;51.660;5.824;2023-04-15T15:25:57;2.9;;;1.0;;
56593;SDS011;42474;51.660;5.824;2023-04-15T15:30:56;1.6;;;1.0;;
56593;SDS011;42474;51.660;5.824;2023-04-15T15:35:56;1.6;;;1.1;;
56593;SDS011;42474;51.660;5.824;2023-04-15T15:40:56;2.0;;;1.1;;
56593;SDS011;42474;51.660;5.824;2023-04-15T15:45:56;3.4;;;2.0;;
56593;SDS011;42474;51.660;5.824;2023-04-15T15:50:56;2.7;;;1.5;;
56593;SDS011;42474;51.660;5.824;2023-04-15T15:55:56;2.6;;;1.5;;
56593;SDS011;42474;51.660;5.824;2023-04-15T16:00:56;1.7;;;1.3;;
56593;SDS011;42474;51.660;5.824;2023-04-15T16:05:56;2.5;;;1.4;;
56593;SDS011;42474;51.660;5.824;2023-04-15T16:10:56;3.0;;;1.9;;
56593;SDS011;42474;51.660;5.824;2023-04-15T16:15:56;4.7;;;1.9;;
56593;SDS011;42474;51.660;5.824;2023-04-15T16:20:56;4.7;;;2.1;;
56593;SDS011;42474;51.660;5.824;2023-04-15T16:25:56;5.1;;;2.0;;
56593;SDS011;42474;51.660;5.824;2023-04-15T16:30:56;4.1;;;2.2;;
56593;SDS011;42474;51.660;5.824;2023-04-15T16:35:56;5.6;;;1.9;;
56593;SDS011;42474;51.660;5.824;2023-04-15T16:40:57;5.2;;;1.8;;
56593;SDS011;42474;51.660;5.824;2023-04-15T16:50:56;4.0;;;1.6;;
56593;SDS011;42474;51.660;5.824;2023-04-15T16:55:56;4.3;;;1.6;;
56593;SDS011;42474;51.660;5.824;2023-04-15T17:00:56;5.4;;;1.8;;
56593;SDS011;42474;51.660;5.824;2023-04-15T17:05:56;3.3;;;1.6;;
56593;SDS011;42474;51.660;5.824;2023-04-15T17:10:56;3.2;;;1.6;;
56593;SDS011;42474;51.660;5.824;2023-04-15T17:15:56;4.4;;;1.9;;
56593;SDS011;42474;51.660;5.824;2023-04-15T17:20:56;3.3;;;1.5;;
56593;SDS011;42474;51.660;5.824;2023-04-15T17:25:56;4.5;;;1.7;;
56593;SDS011;42474;51.660;5.824;2023-04-15T17:30:56;4.5;;;1.5;;
56593;SDS011;42474;51.660;5.824;2023-04-15T17:35:56;5.2;;;1.3;;
56593;SDS011;42474;51.660;5.824;2023-04-15T17:40:56;2.7;;;1.6;;
56593;SDS011;42474;51.660;5.824;2023-04-15T17:45:56;3.9;;;1.3;;
56593;SDS011;42474;51.660;5.824;2023-04-15T17:50:56;3.1;;;1.4;;
56593;SDS011;42474;51.660;5.824;2023-04-15T17:55:56;3.5;;;1.6;;
56593;SDS011;42474;51.660;5.824;2023-04-15T18:00:56;3.8;;;1.4;;
56593;SDS011;42474;51.660;5.824;2023-04-15T18:05:56;3.7;;;1.8;;
56593;SDS011;42474;51.660;5.824;2023-04-15T18:10:56;6.8;;;1.5;;
56593;SDS011;42474;51.660;5.824;2023-04-15T18:15:56;4.5;;;1.6;;
56593;SDS011;42474;51.660;5.824;2023-04-15T18:20:56;5.7;;;2.0;;
56593;SDS011;42474;51.660;5.824;2023-04-15T18:25:56;5.3;;;1.6;;
56593;SDS011;42474;51.660;5.824;2023-04-15T18:30:56;4.6;;;1.6;;
56593;SDS011;42474;51.660;5.824;2023-04-15T18:35:56;4.4;;;1.8;;
56593;SDS011;42474;51.660;5.824;2023-04-15T18:40:56;4.8;;;2.2;;
56593;SDS011;42474;51.660;5.824;2023-04-15T18:45:56;4.9;;;2.0;;
56593;SDS011;42474;51.660;5.824;2023-04-15T18:50:56;7.1;;;2.0;;
56593;SDS011;42474;51.660;5.824;2023-04-15T18:55:56;5.9;;;1.7;;
56593;SDS011;42474;51.660;5.824;2023-04-15T19:00:56;4.1;;;1.5;;
56593;SDS011;42474;51.660;5.824;2023-04-15T19:05:56;5.0;;;1.9;;
56593;SDS011;42474;51.660;5.824;2023-04-15T19:10:56;4.4;;;1.9;;
56593;SDS011;42474;51.660;5.824;2023-04-15T19:15:56;5.6;;;2.0;;
56593;SDS011;42474;51.660;5.824;2023-04-15T19:20:56;9.8;;;2.1;;
56593;SDS011;42474;51.660;5.824;2023-04-15T19:25:56;5.5;;;1.9;;
56593;SDS011;42474;51.660;5.824;2023-04-15T19:30:56;4.7;;;1.9;;
56593;SDS011;42474;51.660;5.824;2023-04-15T19:35:56;5.5;;;1.8;;
56593;SDS011;42474;51.660;5.824;2023-04-15T19:40:56;5.9;;;2.0;;
56593;SDS011;42474;51.660;5.824;2023-04-15T19:45:56;5.2;;;2.0;;
56593;SDS011;42474;51.660;5.824;2023-04-15T19:50:56;4.0;;;1.8;;
56593;SDS011;42474;51.660;5.824;2023-04-15T19:55:56;3.6;;;1.8;;
56593;SDS011;42474;51.660;5.824;2023-04-15T20:00:56;4.8;;;2.0;;
56593;SDS011;42474;51.660;5.824;2023-04-15T20:05:56;5.3;;;2.5;;
56593;SDS011;42474;51.660;5.824;2023-04-15T20:10:56;4.9;;;2.0;;
56593;SDS011;42474;51.660;5.824;2023-04-15T20:15:56;6.7;;;2.0;;
56593;SDS011;42474;51.660;5.824;2023-04-15T20:20:56;3.6;;;2.0;;
56593;SDS011;42474;51.660;5.824;2023-04-15T20:25:56;6.1;;;2.6;;
56593;SDS011;42474;51.660;5.824;2023-04-15T20:30:56;5.2;;;2.3;;
56593;SDS011;42474;51.660;5.824;2023-04-15T20:35:56;5.3;;;2.2;;
56593;SDS011;42474;51.660;5.824;2023-04-15T20:40:56;4.4;;;2.1;;
56593;SDS011;42474;51.660;5.824;2023-04-15T20:45:57;4.9;;;2.0;;
56593;SDS011;42474;51.660;5.824;2023-04-15T20:50:56;7.0;;;2.4;;
56593;SDS011;42474;51.660;5.824;2023-04-15T20:55:56;7.3;;;2.6;;
56593;SDS011;42474;51.660;5.824;2023-04-15T21:00:56;7.1;;;2.3;;
56593;SDS011;42474;51.660;5.824;2023-04-15T21:05:56;4.9;;;2.3;;
56593;SDS011;42474;51.660;5.824;2023-04-15T21:10:56;6.7;;;2.3;;
56593;SDS011;42474;51.660;5.824;2023-04-15T21:15:56;5.1;;;2.1;;
56593;SDS011;42474;51.660;5.824;2023-04-15T21:20:57;5.1;;;2.4;;
56593;SDS011;42474;51.660;5.824;2023-04-15T21:25:57;7.7;;;2.1;;
56593;SDS011;42474;51.660;5.824;2023-04-15T21:30:56;13.3;;;2.7;;
56593;SDS011;42474;51.660;5.824;2023-04-15T21:35:56;8.3;;;2.7;;
56593;SDS011;42474;51.660;5.824;2023-04-15T21:40:56;4.0;;;2.3;;
56593;SDS011;42474;51.660;5.824;2023-04-15T21:45:56;5.2;;;2.3;;
56593;SDS011;42474;51.660;5.824;2023-04-15T21:50:56;7.7;;;2.8;;
56593;SDS011;42474;51.660;5.824;2023-04-15T21:55:56;7.4;;;2.6;;
56593;SDS011;42474;51.660;5.824;2023-04-15T22:00:56;4.8;;;2.3;;
56593;SDS011;42474;51.660;5.824;2023-04-15T22:05:56;6.1;;;2.3;;
56593;SDS011;42474;51.660;5.824;2023-04-15T22:15:56;4.1;;;2.1;;
56593;SDS011;42474;51.660;5.824;2023-04-15T22:20:56;4.9;;;2.1;;
56593;SDS011;42474;51.660;5.824;2023-04-15T22:25:57;6.1;;;3.0;;
56593;SDS011;42474;51.660;5.824;2023-04-15T22:30:56;6.6;;;2.3;;
56593;SDS011;42474;51.660;5.824;2023-04-15T22:35:56;5.1;;;2.6;;
56593;SDS011;42474;51.660;5.824;2023-04-15T22:40:56;3.6;;;1.9;;
56593;SDS011;42474;51.660;5.824;2023-04-15T22:45:56;4.4;;;2.2;;
56593;SDS011;42474;51.660;5.824;2023-04-15T22:50:56;5.6;;;2.5;;
56593;SDS011;42474;51.660;5.824;2023-04-15T22:55:56;5.1;;;2.6;;
56593;SDS011;42474;51.660;5.824;2023-04-15T23:00:56;5.8;;;2.7;;
56593;SDS011;42474;51.660;5.824;2023-04-15T23:05:56;7.3;;;3.2;;
56593;SDS011;42474;51.660;5.824;2023-04-15T23:10:56;6.0;;;2.8;;
56593;SDS011;42474;51.660;5.824;2023-04-15T23:15:57;6.2;;;2.7;;
56593;SDS011;42474;51.660;5.824;2023-04-15T23:20:56;4.8;;;2.8;;
56593;SDS011;42474;51.660;5.824;2023-04-15T23:25:56;9.2;;;3.5;;
56593;SDS011;42474;51.660;5.824;2023-04-15T23:30:56;6.2;;;3.1;;
56593;SDS011;42474;51.660;5.824;2023-04-15T23:35:56;5.8;;;2.9;;
56593;SDS011;42474;51.660;5.824;2023-04-15T23:40:57;6.5;;;3.0;;
56593;SDS011;42474;51.660;5.824;2023-04-15T23:45:56;6.8;;;3.4;;
56593;SDS011;42474;51.660;5.824;2023-04-15T23:50:56;7.1;;;3.1;;
56593;SDS011;42474;51.660;5.824;2023-04-15T23:55:56;5.8;;;3.2;;
